createdAt,value
2018-02-04T00:00:46.800Z,58.10
2018-02-04T00:03:14.461Z,58.10
2018-02-04T00:05:42.065Z,58.00
2018-02-04T00:08:09.659Z,58.00
2018-02-04T00:10:37.183Z,58.00
2018-02-04T00:13:05.480Z,57.70
2018-02-04T00:15:33.085Z,57.70
2018-02-04T00:18:00.626Z,57.70
2018-02-04T00:20:28.203Z,57.90
2018-02-04T00:22:56.664Z,58.20
2018-02-04T00:25:24.326Z,58.20
2018-02-04T00:27:51.895Z,58.80
2018-02-04T00:30:19.483Z,59.00
2018-02-04T00:32:47.065Z,59.00
2018-02-04T00:35:16.016Z,59.20
2018-02-04T00:37:44.401Z,59.20
2018-02-04T00:40:12.265Z,59.20
2018-02-04T00:42:39.900Z,59.20
2018-02-04T00:45:08.227Z,59.40
2018-02-04T00:47:36.562Z,59.80
2018-02-04T00:50:04.963Z,59.80
2018-02-04T00:52:32.652Z,59.80
2018-02-04T00:55:00.195Z,59.80
2018-02-04T00:57:27.713Z,59.90
2018-02-04T00:59:55.415Z,59.90
2018-02-04T01:02:24.401Z,60.00
2018-02-04T01:04:51.952Z,59.70
2018-02-04T01:07:19.506Z,59.80
2018-02-04T01:09:47.071Z,59.90
2018-02-04T01:12:14.752Z,59.70
2018-02-04T01:14:42.348Z,60.00
2018-02-04T01:17:10.695Z,59.70
2018-02-04T01:19:38.229Z,59.70
2018-02-04T01:22:05.798Z,59.40
2018-02-04T01:24:33.389Z,59.60
2018-02-04T01:27:00.985Z,59.90
2018-02-04T01:29:29.338Z,59.90
2018-02-04T01:31:56.933Z,59.90
2018-02-04T01:34:24.549Z,60.10
2018-02-04T01:36:52.070Z,60.00
2018-02-04T01:39:19.591Z,59.90
2018-02-04T01:41:47.177Z,59.60
2018-02-04T01:44:14.749Z,59.70
2018-02-04T01:46:42.279Z,59.80
2018-02-04T01:49:09.844Z,59.70
2018-02-04T01:51:37.360Z,59.70
2018-02-04T01:54:04.907Z,60.20
2018-02-04T01:56:32.790Z,59.60
2018-02-04T01:59:00.527Z,60.10
2018-02-04T02:01:28.578Z,59.40
2018-02-04T02:03:56.101Z,59.60
2018-02-04T02:06:23.744Z,60.20
2018-02-04T02:08:51.283Z,59.30
2018-02-04T02:11:18.830Z,59.90
2018-02-04T02:13:46.410Z,59.90
2018-02-04T02:16:13.989Z,59.60
2018-02-04T02:18:42.298Z,59.40
2018-02-04T02:21:10.125Z,59.30
2018-02-04T02:23:37.673Z,60.10
2018-02-04T02:26:05.218Z,59.50
2018-02-04T02:28:32.790Z,59.40
2018-02-04T02:31:01.307Z,59.70
2018-02-04T02:33:29.651Z,59.60
2018-02-04T02:35:57.211Z,59.60
2018-02-04T02:38:25.755Z,59.50
2018-02-04T02:40:53.295Z,59.50
2018-02-04T02:43:20.808Z,59.50
2018-02-04T02:45:48.480Z,59.50
2018-02-04T02:48:16.017Z,59.50
2018-02-04T02:50:43.544Z,60.00
2018-02-04T02:53:11.163Z,60.30
2018-02-04T02:55:39.500Z,60.60
2018-02-04T02:58:07.964Z,60.60
2018-02-04T03:00:35.509Z,61.30
2018-02-04T03:03:03.829Z,61.40
2018-02-04T03:05:31.388Z,61.30
2018-02-04T03:08:02.350Z,61.30
2018-02-04T03:10:30.793Z,61.40
2018-02-04T03:12:58.330Z,61.20
2018-02-04T03:15:25.936Z,61.50
2018-02-04T03:17:53.469Z,61.60
2018-02-04T03:20:21.384Z,62.10
2018-02-04T03:22:48.920Z,62.20
2018-02-04T03:25:16.552Z,62.50
2018-02-04T03:27:44.196Z,62.60
2018-02-04T03:30:12.752Z,62.30
2018-02-04T03:32:40.333Z,62.40
2018-02-04T03:35:08.383Z,62.20
2018-02-04T03:37:35.909Z,62.10
2018-02-04T03:40:04.266Z,62.00
2018-02-04T03:42:31.888Z,62.10
2018-02-04T03:44:59.423Z,62.30
2018-02-04T03:47:26.983Z,62.30
2018-02-04T03:49:54.607Z,62.00
2018-02-04T03:52:22.160Z,61.40
2018-02-04T03:54:49.705Z,61.60
2018-02-04T03:57:18.128Z,61.80
2018-02-04T03:59:45.675Z,61.60
2018-02-04T04:02:13.195Z,61.90
2018-02-04T04:04:42.204Z,62.00
2018-02-04T04:07:10.497Z,62.50
2018-02-04T04:09:38.063Z,62.50
2018-02-04T04:12:05.623Z,62.40
2018-02-04T04:14:33.164Z,62.30
2018-02-04T04:17:00.738Z,62.00
2018-02-04T04:19:28.329Z,62.00
2018-02-04T04:21:55.863Z,62.00
2018-02-04T04:24:23.978Z,62.60
2018-02-04T04:26:51.497Z,62.50
2018-02-04T04:38:59.098Z,62.70
2018-02-04T04:41:26.982Z,63.10
2018-02-04T04:43:55.349Z,62.80
2018-02-04T04:46:22.946Z,62.80
2018-02-04T04:48:51.242Z,62.70
2018-02-04T04:51:18.804Z,62.30
2018-02-04T04:53:46.412Z,62.10
2018-02-04T04:56:14.027Z,61.70
2018-02-04T04:58:41.600Z,61.80
2018-02-04T05:01:09.425Z,61.60
2018-02-04T05:03:38.459Z,61.50
2018-02-04T05:06:05.985Z,61.50
2018-02-04T05:08:33.589Z,61.90
2018-02-04T05:11:01.108Z,61.50
2018-02-04T05:13:28.681Z,61.00
2018-02-04T05:15:56.242Z,61.10
2018-02-04T05:18:23.792Z,61.00
2018-02-04T05:20:51.361Z,60.50
2018-02-04T05:23:18.920Z,60.50
2018-02-04T05:25:46.481Z,60.60
2018-02-04T05:28:14.184Z,60.50
2018-02-04T05:30:41.804Z,60.10
2018-02-04T05:33:09.945Z,59.70
2018-02-04T05:35:38.318Z,59.40
2018-02-04T05:38:06.642Z,59.80
2018-02-04T05:40:34.467Z,59.80
2018-02-04T05:43:02.808Z,60.00
2018-02-04T05:45:30.337Z,60.70
2018-02-04T05:47:57.885Z,60.30
2018-02-04T05:50:25.501Z,60.50
2018-02-04T05:52:53.906Z,60.40
2018-02-04T05:55:22.302Z,60.60
2018-02-04T05:57:49.834Z,60.50
2018-02-04T06:00:18.164Z,61.20
2018-02-04T06:02:45.822Z,61.10
2018-02-04T06:05:13.644Z,61.50
2018-02-04T06:07:41.962Z,61.80
2018-02-04T06:10:09.580Z,61.80
2018-02-04T06:12:37.919Z,62.00
2018-02-04T06:15:05.598Z,62.00
2018-02-04T06:17:33.307Z,62.20
2018-02-04T06:20:00.841Z,62.10
2018-02-04T06:22:29.203Z,61.90
2018-02-04T06:24:56.829Z,61.80
2018-02-04T06:27:24.426Z,61.90
2018-02-04T06:29:51.975Z,61.80
2018-02-04T06:32:19.572Z,62.00
2018-02-04T06:34:47.119Z,61.80
2018-02-04T06:37:15.408Z,61.40
2018-02-04T06:39:43.760Z,61.40
2018-02-04T06:42:11.299Z,61.40
2018-02-04T06:44:38.891Z,61.80
2018-02-04T06:47:06.454Z,61.40
2018-02-04T06:49:34.004Z,61.40
2018-02-04T06:52:01.538Z,61.70
2018-02-04T06:54:29.163Z,61.20
2018-02-04T06:56:56.726Z,61.30
2018-02-04T06:59:24.897Z,61.30
2018-02-04T07:01:52.507Z,61.10
2018-02-04T07:04:20.096Z,60.60
2018-02-04T07:06:48.388Z,60.40
2018-02-04T07:09:16.012Z,60.20
2018-02-04T07:11:43.558Z,60.10
2018-02-04T07:14:11.255Z,60.00
2018-02-04T07:16:38.845Z,60.10
2018-02-04T07:19:06.370Z,60.20
2018-02-04T07:21:33.991Z,60.10
2018-02-04T07:24:02.059Z,59.90
2018-02-04T07:26:29.611Z,60.10
2018-02-04T07:28:57.186Z,60.00
2018-02-04T07:31:24.861Z,60.10
2018-02-04T07:33:52.435Z,59.40
2018-02-04T07:36:20.045Z,59.50
2018-02-04T07:38:47.610Z,59.40
2018-02-04T07:41:15.663Z,59.30
2018-02-04T07:43:43.267Z,59.50
2018-02-04T07:46:10.840Z,59.70
2018-02-04T07:48:38.495Z,59.60
2018-02-04T07:51:06.079Z,59.10
2018-02-04T07:53:33.643Z,59.30
2018-02-04T07:56:01.957Z,59.50
2018-02-04T07:58:29.482Z,59.50
2018-02-04T08:00:57.836Z,59.50
2018-02-04T08:03:25.398Z,59.50
2018-02-04T08:05:52.983Z,60.10
2018-02-04T08:08:20.574Z,60.00
2018-02-04T08:10:48.898Z,58.30
2018-02-04T08:13:16.501Z,58.30
2018-02-04T08:15:44.326Z,58.60
2018-02-04T08:18:12.665Z,58.60
2018-02-04T08:20:40.258Z,57.90
2018-02-04T08:23:07.830Z,57.00
2018-02-04T08:25:35.373Z,56.60
2018-02-04T08:28:02.953Z,56.30
2018-02-04T08:30:30.592Z,56.50
2018-02-04T08:32:58.131Z,55.90
2018-02-04T08:35:25.843Z,56.10
2018-02-04T08:37:54.176Z,55.60
2018-02-04T08:40:21.732Z,55.50
2018-02-04T08:42:49.268Z,55.40
2018-02-04T08:45:16.862Z,55.40
2018-02-04T08:47:44.418Z,55.40
2018-02-04T08:50:11.967Z,55.00
2018-02-04T08:52:39.509Z,55.00
2018-02-04T08:55:07.243Z,55.10
2018-02-04T08:57:34.778Z,55.10
2018-02-04T09:00:02.450Z,54.60
2018-02-04T09:02:29.993Z,54.40
2018-02-04T09:04:57.638Z,53.90
2018-02-04T09:07:25.211Z,54.00
2018-02-04T09:09:52.851Z,53.40
2018-02-04T09:12:20.420Z,53.70
2018-02-04T09:14:48.040Z,53.70
2018-02-04T09:17:15.608Z,53.10
2018-02-04T09:19:43.169Z,52.10
2018-02-04T09:22:10.747Z,51.30
2018-02-04T09:24:38.370Z,50.60
2018-02-04T09:27:05.933Z,47.20
2018-02-04T09:29:33.500Z,47.30
2018-02-04T09:32:01.037Z,47.70
2018-02-04T09:34:28.658Z,47.90
2018-02-04T09:36:56.182Z,48.20
2018-02-04T09:39:23.754Z,48.90
2018-02-04T09:41:51.330Z,48.80
2018-02-04T09:44:18.871Z,49.00
2018-02-04T09:46:47.340Z,49.10
2018-02-04T09:49:16.511Z,49.70
2018-02-04T09:51:44.892Z,50.00
2018-02-04T09:54:12.466Z,50.00
2018-02-04T09:56:40.053Z,50.40
2018-02-04T09:59:07.605Z,49.90
2018-02-04T10:01:35.214Z,49.70
2018-02-04T10:04:02.791Z,49.80
2018-02-04T10:06:31.019Z,50.30
2018-02-04T10:08:58.632Z,50.70
2018-02-04T10:11:26.218Z,50.60
2018-02-04T10:13:53.759Z,49.90
2018-02-04T10:16:21.343Z,49.70
2018-02-04T10:18:49.739Z,50.20
2018-02-04T10:21:17.289Z,50.20
2018-02-04T10:23:45.025Z,49.70
2018-02-04T10:26:13.969Z,49.80
2018-02-04T10:28:42.363Z,49.10
2018-02-04T10:31:10.090Z,49.10
2018-02-04T10:33:37.643Z,49.00
2018-02-04T10:36:05.323Z,48.60
2018-02-04T10:38:32.922Z,48.10
2018-02-04T10:41:00.537Z,47.90
2018-02-04T10:43:28.111Z,47.40
2018-02-04T10:45:55.715Z,47.50
2018-02-04T10:48:23.295Z,48.00
2018-02-04T10:50:56.496Z,48.70
2018-02-04T10:53:24.091Z,50.50
2018-02-04T10:55:51.638Z,51.70
2018-02-04T10:58:19.224Z,52.40
2018-02-04T11:00:46.841Z,53.20
2018-02-04T11:03:14.415Z,53.10
2018-02-04T11:05:42.797Z,53.40
2018-02-04T11:08:10.378Z,53.80
2018-02-04T11:10:37.927Z,53.50
2018-02-04T11:13:05.996Z,53.50
2018-02-04T11:15:33.508Z,53.20
2018-02-04T11:18:01.220Z,52.70
2018-02-04T11:20:28.750Z,52.50
2018-02-04T11:22:57.063Z,52.50
2018-02-04T11:25:24.643Z,53.20
2018-02-04T11:27:52.171Z,50.90
2018-02-04T11:30:19.709Z,50.50
2018-02-04T11:32:47.243Z,50.40
2018-02-04T11:35:14.779Z,50.30
2018-02-04T11:37:44.199Z,50.20
2018-02-04T11:40:11.781Z,50.10
2018-02-04T11:42:40.225Z,48.50
2018-02-04T11:45:08.287Z,48.40
2018-02-04T11:47:35.802Z,48.50
2018-02-04T11:50:05.031Z,48.40
2018-02-04T11:52:32.610Z,48.20
2018-02-04T11:55:00.320Z,48.50
2018-02-04T11:57:29.352Z,47.60
2018-02-04T11:59:56.930Z,47.60
2018-02-04T12:02:24.482Z,46.90
2018-02-04T12:04:52.141Z,47.00
2018-02-04T12:07:19.765Z,47.80
2018-02-04T12:09:47.324Z,47.60
2018-02-04T12:12:15.317Z,47.50
2018-02-04T12:14:43.015Z,47.50
2018-02-04T12:17:10.544Z,47.00
2018-02-04T12:19:38.351Z,47.00
2018-02-04T12:22:07.526Z,47.20
2018-02-04T12:24:35.154Z,46.80
2018-02-04T12:27:02.752Z,46.40
2018-02-04T12:29:30.335Z,46.10
2018-02-04T12:32:00.089Z,45.70
2018-02-04T12:34:27.775Z,45.70
2018-02-04T12:36:57.026Z,46.20
2018-02-04T12:39:24.565Z,46.10
2018-02-04T12:41:52.910Z,46.10
2018-02-04T12:44:20.498Z,46.10
2018-02-04T12:46:48.123Z,46.30
2018-02-04T12:49:15.679Z,46.10
2018-02-04T12:51:43.564Z,47.60
2018-02-04T12:54:11.193Z,50.30
2018-02-04T12:56:40.317Z,51.30
2018-02-04T12:59:07.910Z,52.00
2018-02-04T13:01:36.439Z,53.40
2018-02-04T13:04:04.434Z,53.30
2018-02-04T13:06:32.022Z,52.40
2018-02-04T13:09:00.461Z,52.90
2018-02-04T13:11:28.049Z,53.60
2018-02-04T13:13:55.581Z,53.30
2018-02-04T13:16:23.177Z,53.20
2018-02-04T13:18:50.744Z,53.60
2018-02-04T13:21:20.880Z,53.50
2018-02-04T13:23:49.833Z,53.50
2018-02-04T13:26:17.459Z,53.40
2018-02-04T13:41:40.327Z,53.30
2018-02-04T13:44:07.846Z,54.80
2018-02-04T13:46:35.432Z,55.10
2018-02-04T13:49:03.088Z,55.20
2018-02-04T13:51:30.651Z,54.50
2018-02-04T13:53:58.371Z,53.80
2018-02-04T13:56:26.109Z,53.40
2018-02-04T13:58:54.917Z,52.60
2018-02-04T14:01:23.316Z,51.70
2018-02-04T14:03:51.785Z,51.70
2018-02-04T14:06:20.404Z,52.50
2018-02-04T14:08:47.989Z,52.30
2018-02-04T14:11:15.619Z,52.50
2018-02-04T14:13:43.186Z,52.90
2018-02-04T14:16:11.592Z,53.30
2018-02-04T14:18:39.129Z,53.40
2018-02-04T14:21:06.710Z,53.50
2018-02-04T14:23:34.247Z,53.60
2018-02-04T14:26:01.798Z,54.00
2018-02-04T14:28:29.928Z,54.70
2018-02-04T14:30:57.534Z,55.00
2018-02-04T14:33:25.075Z,55.60
2018-02-04T14:35:53.395Z,56.80
2018-02-04T14:38:20.960Z,56.80
2018-02-04T14:40:48.503Z,57.80
2018-02-04T14:43:16.085Z,58.90
2018-02-04T14:45:44.360Z,59.10
2018-02-04T14:48:11.899Z,58.90
2018-02-04T14:50:39.860Z,58.90
2018-02-04T14:53:07.687Z,58.50
2018-02-04T14:55:35.259Z,58.20
2018-02-04T14:58:02.809Z,58.00
2018-02-04T15:00:30.375Z,57.60
2018-02-04T15:02:59.045Z,56.80
2018-02-04T15:05:27.721Z,56.80
2018-02-04T15:07:55.434Z,57.10
2018-02-04T15:10:23.028Z,57.10
2018-02-04T15:12:51.221Z,57.00
2018-02-04T15:15:18.818Z,57.00
2018-02-04T15:17:46.392Z,57.10
2018-02-04T15:20:14.067Z,57.70
2018-02-04T15:22:41.605Z,57.60
2018-02-04T15:25:10.129Z,57.20
2018-02-04T15:27:37.716Z,57.20
2018-02-04T15:30:05.347Z,57.00
2018-02-04T15:32:32.917Z,56.50
2018-02-04T15:35:00.435Z,55.80
2018-02-04T15:37:27.979Z,55.20
2018-02-04T15:39:55.580Z,54.90
2018-02-04T15:42:23.167Z,54.80
2018-02-04T15:44:50.764Z,54.90
2018-02-04T15:47:18.899Z,55.00
2018-02-04T15:49:46.518Z,55.10
2018-02-04T15:52:14.135Z,54.80
2018-02-04T15:54:41.707Z,54.80
2018-02-04T15:57:09.276Z,55.10
2018-02-04T15:59:36.787Z,55.00
2018-02-04T16:02:04.362Z,54.90
2018-02-04T16:04:31.985Z,54.90
2018-02-04T16:06:59.557Z,54.60
2018-02-04T16:09:27.856Z,54.60
2018-02-04T16:11:55.544Z,54.50
2018-02-04T16:14:23.861Z,54.60
2018-02-04T16:16:51.419Z,54.50
2018-02-04T16:19:19.007Z,54.90
2018-02-04T16:21:47.338Z,54.10
2018-02-04T16:24:14.962Z,54.00
2018-02-04T16:26:44.123Z,54.10
2018-02-04T16:29:11.667Z,54.10
2018-02-04T16:31:39.243Z,54.10
2018-02-04T16:34:06.769Z,54.50
2018-02-04T16:36:36.031Z,54.60
2018-02-04T16:39:04.876Z,54.60
2018-02-04T16:41:32.459Z,54.80
2018-02-04T16:44:00.028Z,54.90
2018-02-04T16:46:27.624Z,54.90
2018-02-04T16:48:55.294Z,55.00
2018-02-04T16:51:22.915Z,55.20
2018-02-04T16:53:50.515Z,55.20
2018-02-04T16:56:18.602Z,55.20
2018-02-04T16:58:46.174Z,55.40
2018-02-04T17:01:13.711Z,55.40
2018-02-04T17:03:41.514Z,55.50
2018-02-04T17:06:09.311Z,55.40
2018-02-04T17:08:37.526Z,55.60
2018-02-04T17:11:06.022Z,55.80
2018-02-04T17:13:33.915Z,55.80
2018-02-04T17:16:01.445Z,56.10
2018-02-04T17:18:29.038Z,56.20
2018-02-04T17:20:56.607Z,56.30
2018-02-04T17:23:24.190Z,56.70
2018-02-04T17:25:51.807Z,57.00
2018-02-04T17:28:19.360Z,57.30
2018-02-04T17:30:47.708Z,57.30
2018-02-04T17:33:15.287Z,57.20
2018-02-04T17:35:42.977Z,57.70
2018-02-04T17:38:10.548Z,57.80
2018-02-04T17:40:38.906Z,57.70
2018-02-04T17:43:06.504Z,57.60
2018-02-04T17:45:34.076Z,57.40
2018-02-04T17:48:01.690Z,57.40
2018-02-04T17:50:29.295Z,57.00
2018-02-04T17:52:56.849Z,57.00
2018-02-04T17:55:28.360Z,56.60
2018-02-04T17:57:55.982Z,56.60
2018-02-04T18:00:23.599Z,56.40
2018-02-04T18:02:51.143Z,56.30
2018-02-04T18:14:58.760Z,56.40
2018-02-04T18:17:26.384Z,56.20
2018-02-04T18:19:54.060Z,56.20
2018-02-04T18:22:21.648Z,56.60
2018-02-04T18:24:50.480Z,58.40
2018-02-04T18:27:19.499Z,58.30
2018-02-04T18:29:47.055Z,58.60
2018-02-04T18:32:14.596Z,58.70
2018-02-04T18:34:43.108Z,59.30
2018-02-04T18:37:11.524Z,59.20
2018-02-04T18:39:39.257Z,59.00
2018-02-04T18:42:07.313Z,58.20
2018-02-04T18:44:34.919Z,57.90
2018-02-04T18:47:02.511Z,58.30
2018-02-04T18:49:30.092Z,58.20
2018-02-04T18:51:57.674Z,58.80
2018-02-04T18:54:25.295Z,59.10
2018-02-04T18:56:53.275Z,59.80
2018-02-04T18:59:20.862Z,60.30
2018-02-04T19:01:48.418Z,60.30
2018-02-04T19:04:16.665Z,60.50
2018-02-04T19:06:44.210Z,60.80
2018-02-04T19:09:11.852Z,60.90
2018-02-04T19:11:40.280Z,60.90
2018-02-04T19:14:07.940Z,60.90
2018-02-04T19:16:35.486Z,60.60
2018-02-04T19:19:03.063Z,60.00
2018-02-04T19:21:31.240Z,60.00
2018-02-04T19:23:58.996Z,60.30
2018-02-04T19:26:26.546Z,61.00
2018-02-04T19:28:54.819Z,61.10
2018-02-04T19:31:22.439Z,60.40
2018-02-04T19:33:50.728Z,60.30
2018-02-04T19:36:19.101Z,60.40
2018-02-04T19:38:47.428Z,60.30
2018-02-04T19:41:15.031Z,60.20
2018-02-04T19:43:42.740Z,60.00
2018-02-04T19:46:10.324Z,60.20
2018-02-04T19:48:37.940Z,60.70
2018-02-04T19:51:05.491Z,60.70
2018-02-04T19:53:34.285Z,60.10
2018-02-04T19:56:01.838Z,60.00
2018-02-04T19:58:30.170Z,60.70
2018-02-04T20:00:58.214Z,60.60
2018-02-04T20:03:26.402Z,60.40
2018-02-04T20:05:53.976Z,60.30
2018-02-04T20:08:21.737Z,59.60
2018-02-04T20:10:49.354Z,58.80
2018-02-04T20:13:17.708Z,57.40
2018-02-04T20:15:45.382Z,57.30
2018-02-04T20:18:13.757Z,56.90
2018-02-04T20:20:41.386Z,56.60
2018-02-04T20:23:08.970Z,56.60
2018-02-04T20:25:36.557Z,56.40
2018-02-04T20:28:05.222Z,56.20
2018-02-04T20:30:32.805Z,56.20
2018-02-04T20:33:12.099Z,55.90
2018-02-04T20:35:40.050Z,55.80
2018-02-04T20:38:08.460Z,55.80
2018-02-04T20:40:35.985Z,55.40
2018-02-04T20:43:03.625Z,55.40
2018-02-04T20:45:31.340Z,55.20
2018-02-04T20:47:58.916Z,55.30
2018-02-04T20:50:27.583Z,54.80
2018-02-04T20:52:55.205Z,54.70
2018-02-04T20:55:22.760Z,54.90
2018-02-04T20:57:50.290Z,54.90
2018-02-04T21:00:18.754Z,54.20
2018-02-04T21:02:46.388Z,54.20
2018-02-04T21:05:15.692Z,53.60
2018-02-04T21:07:43.311Z,53.60
2018-02-04T21:10:10.952Z,53.50
2018-02-04T21:12:39.292Z,53.70
2018-02-04T21:15:06.875Z,53.60
2018-02-04T21:17:34.454Z,53.60
2018-02-04T21:20:02.820Z,53.50
2018-02-04T21:22:33.864Z,53.70
2018-02-04T21:25:03.173Z,53.40
2018-02-04T21:27:31.527Z,52.90
2018-02-04T21:30:00.217Z,52.90
2018-02-04T21:45:22.824Z,52.80
2018-02-04T21:47:50.561Z,54.30
2018-02-04T21:50:18.124Z,54.30
2018-02-04T21:52:46.141Z,54.80
2018-02-04T22:08:08.907Z,55.40
2018-02-04T22:10:37.212Z,56.30
2018-02-04T22:13:04.842Z,56.00
2018-02-04T22:15:33.323Z,55.90
2018-02-04T22:18:01.242Z,55.70
2018-02-04T22:20:29.096Z,55.20
2018-02-04T22:22:57.195Z,54.90
2018-02-04T22:25:25.472Z,55.40
2018-02-04T22:27:53.006Z,55.20
2018-02-04T22:30:21.037Z,55.50
2018-02-04T22:32:50.037Z,54.90
2018-02-04T22:35:19.657Z,54.80
2018-02-04T22:37:47.549Z,54.80
2018-02-04T22:40:15.074Z,54.50
2018-02-04T22:42:42.624Z,54.50
2018-02-04T22:45:10.224Z,54.30
2018-02-04T22:47:39.166Z,53.20
2018-02-04T22:50:06.730Z,53.20
2018-02-04T22:52:34.935Z,52.60
2018-02-04T22:55:02.531Z,52.30
2018-02-04T22:57:30.083Z,53.60
2018-02-04T22:59:58.955Z,55.20
2018-02-04T23:02:27.896Z,55.90
2018-02-04T23:04:55.495Z,56.20
2018-02-04T23:07:23.054Z,56.50
2018-02-04T23:09:51.048Z,56.40
2018-02-04T23:25:15.173Z,56.90
2018-02-04T23:27:43.576Z,56.80
2018-02-04T23:30:11.188Z,56.80
2018-02-04T23:32:40.202Z,56.80
2018-02-04T23:35:07.865Z,57.10
2018-02-04T23:37:36.197Z,57.10
2018-02-04T23:49:44.613Z,57.10
2018-02-04T23:52:12.175Z,58.00
2018-02-04T23:54:39.735Z,58.10
2018-02-04T23:57:08.882Z,58.60
2018-02-04T23:59:36.456Z,58.60
